Main page
METAR-TAF:

METAR-TAF

Airports :

Istres, France

Istres-Le Tubé Air Base

latitude: 43-31N, longitude: 004-56E, elevation: 23 m

Current weather observation

The report was made 12 minutes ago, at 07:00 UTC
Wind 24 kt from the North/Northwest
Temperature 6°C
Humidity 81%
Pressure 1018 hPa
Visibility 10 km or more
no clouds below 1500 m and no cumulonimbus

METAR: LFMI 180700Z AUTO 33024KT CAVOK 06/03 Q1018 TEMPO 34020G37KT

Time: 08:12 (07:12 UTC)

Forecast

The report was made 5 hours and 12 minutes ago, at 02:00 UTC
Forecast valid from 18 at 03 UTC to 19 at 03 UTC
Wind 20 kt from the Northwest
Visibility 10 km or more
no clouds below 1500 m and no cumulonimbus
Temporary
from 18 at 03 UTC to 18 at 15 UTC
Wind 20 kt from the North/Northwest with gusts up to 37 kt
Becoming
from 18 at 21 UTC to 18 at 23 UTC
Wind 10 kt from the North/Northwest

TAF: LFMI 180200Z 1803/1903 32020KT CAVOK TEMPO 1803/1815 34020G37KT BECMG 1821/1823 34010KT

Weather observations and forecasts of more than 4000 airports (METAR and TAF reports).

The available stations are represented by yellow and red dots on the map.

Hover mouse over dot to see the name of the station.

Then click to see weather observations and forecasts.

To change the map : click on the green buttons with a black cross to zoom in, on the green button with a dash to zoom out, or on the green arrows for adjacent maps.


METAR-TAF: